Share

Cypress, FL

11:37 AM CDT on April 23, 2014 (GMT -0500)
Cypress (KFLMARIA3) Elev 138 ft | 30.67 °N, 85.07 °W | Change Station

Current weather conditions updated 3 seconds ago

Mostly Cloudy
Mostly Cloudy
78.9 °F
Feels Like 81 °F
N
0.0
Wind Variable Wind from North
Gusts 9.0 mph
Sunrise 6:04 AM
Sunset 7:13 PM
Moon Waning Crescent

Today is forecast to be nearly the same temperature as yesterday.

Pressure 29.96 in
Visibility 10.0 miles
Clouds Scattered Clouds 2700 ft
Mostly Cloudy 3300 ft
Heat Index 81 °F
Dew Point 68 °F
Humidity 70%
Rainfall 0.00 in
Snow Depth Not available.
UV 6 out of 16
Pollen 8.20 out of 12
Air Quality Not available.
Flu Activity Sporadic
METAR KMAI 231553Z AUTO 00000KT 10SM SCT027 BKN033 24/17 A2996 RMK AO2 SLP144 T02440167 PWINO

More Conditions Fewer Conditions

Pressure 29.96 in
Visibility 10.0 miles
Clouds Scattered Clouds 2700 ft
Mostly Cloudy 3300 ft
Heat Index 81 °F
Dew Point 68 °F
Humidity 70%
Rainfall 0.00 in
Snow Depth Not available.
UV 6 out of 16
Pollen 8.20 out of 12
Air Quality Not available.
Flu Activity Sporadic
METAR KMAI 231553Z AUTO 00000KT 10SM SCT027 BKN033 24/17 A2996 RMK AO2 SLP144 T02440167 PWINO

More Conditions Fewer Conditions

10-Day Weather Forecast

Almanac

Astronomy

Apr. 23, 2014 Rise Set
Actual Time 6:04 AM CDT 7:13 PM CDT
Civil Twilight 5:39 AM CDT 7:38 PM CDT
Nautical Twilight 5:09 AM CDT 8:08 PM CDT
Astronomical Twilight 4:38 AM CDT 8:39 PM CDT
Moon 2:10 AM CDT 1:44 PM CDT
Length of Visible Light 13h 59m
Length of Day
13h 09m
Tomorrow will be 1m 41s longer.
Waning Crescent, 35% of the Moon is Illuminated
Today
Waning Crescent
Apr 29
New
May 6
First Quarter
May 14
Full
May 21
Last Quarter

Today's Extremes

State Highs State Lows

Community

  • Stunning Sunrise
    Stunning Sunrise
  • spring flowers
    spring flowers
  • Earth Day Spectrum Ove' Blue
    Earth Day Spectrum Ove' Blue
  • BARN B&W
    BARN B&W
  • April Sunset
    April Sunset

WunderPhotos

Upload Photos

1,704,329 photos uploaded!

WunderBlogs® & News

Nearby

Snow Depth

Station Depth Elevation
No new snow has been reported.

Coastal Water Temperatures

Place Temperature
No Stations Reporting

Earthquake Activity

City Distance Mag. Time & Date
No recent earthquake activity has been reported nearby.
Minimum magnitude displayed is 2.5.

Nearby Weather Stations

Station Location Temp. Heat Index Dew Point Humidity Wind Precip. Elev Updated Type
Cypress, Marianna, FL 78.9 °F 81 °F 68 °F 70% North  at  0.0 mph 0.00 in / hr 138 ft 11:37 AM CDT Rapid Fire
Blountstown, FL 77.3 °F 79 °F 67 °F 70% ENE  at  4.0 mph 0.00 in / hr 76 ft 11:37 AM CDT Rapid Fire

Show More Stations Show Fewer Stations

What do you think?

We're not finished. Please let us know what you like, what you don't like, and what you are still missing.